sensor_id;sensor_type;location;lat;lon;timestamp;pressure;altitude;pressure_sealevel;temperature;humidity
20368;BME280;10343;52.402;9.796;2023-03-14T00:02:26;98450.97;;;19.49;45.27
20368;BME280;10343;52.402;9.796;2023-03-14T00:04:55;98448.47;;;19.38;45.39
20368;BME280;10343;52.402;9.796;2023-03-14T00:07:23;98440.13;;;19.69;45.09
20368;BME280;10343;52.402;9.796;2023-03-14T00:09:52;98430.91;;;19.81;44.86
20368;BME280;10343;52.402;9.796;2023-03-14T00:12:19;98408.78;;;20.15;44.01
20368;BME280;10343;52.402;9.796;2023-03-14T00:14:47;98398.63;;;20.81;42.63
20368;BME280;10343;52.402;9.796;2023-03-14T00:17:15;98389.47;;;19.46;45.61
20368;BME280;10343;52.402;9.796;2023-03-14T00:19:42;98386.13;;;19.62;45.00
20368;BME280;10343;52.402;9.796;2023-03-14T00:22:12;98417.41;;;19.91;44.76
20368;BME280;10343;52.402;9.796;2023-03-14T00:24:39;98409.50;;;19.90;44.49
20368;BME280;10343;52.402;9.796;2023-03-14T00:27:07;98391.00;;;20.23;44.41
20368;BME280;10343;52.402;9.796;2023-03-14T00:29:35;98396.44;;;20.67;43.16
20368;BME280;10343;52.402;9.796;2023-03-14T00:32:03;98405.00;;;20.26;44.40
20368;BME280;10343;52.402;9.796;2023-03-14T00:34:32;98403.56;;;20.32;43.98
20368;BME280;10343;52.402;9.796;2023-03-14T00:37:00;98411.63;;;20.14;44.53
20368;BME280;10343;52.402;9.796;2023-03-14T00:39:29;98425.66;;;20.62;43.92
20368;BME280;10343;52.402;9.796;2023-03-14T00:41:57;98409.81;;;19.87;45.50
20368;BME280;10343;52.402;9.796;2023-03-14T00:44:25;98434.28;;;20.11;45.13
20368;BME280;10343;52.402;9.796;2023-03-14T00:46:52;98433.34;;;20.20;45.09
20368;BME280;10343;52.402;9.796;2023-03-14T00:49:20;98435.13;;;20.30;44.86
20368;BME280;10343;52.402;9.796;2023-03-14T00:51:50;98443.34;;;20.46;44.24
20368;BME280;10343;52.402;9.796;2023-03-14T00:54:19;98443.13;;;20.40;44.65
20368;BME280;10343;52.402;9.796;2023-03-14T00:56:48;98438.34;;;20.15;44.63
20368;BME280;10343;52.402;9.796;2023-03-14T00:59:16;98426.28;;;20.19;45.09
20368;BME280;10343;52.402;9.796;2023-03-14T01:01:44;98428.38;;;19.80;46.02
20368;BME280;10343;52.402;9.796;2023-03-14T01:04:12;98412.41;;;19.68;45.71
20368;BME280;10343;52.402;9.796;2023-03-14T01:06:40;98389.78;;;19.71;46.45
20368;BME280;10343;52.402;9.796;2023-03-14T01:09:09;98389.72;;;20.27;45.02
20368;BME280;10343;52.402;9.796;2023-03-14T01:11:37;98374.00;;;19.86;46.00
20368;BME280;10343;52.402;9.796;2023-03-14T01:14:06;98361.84;;;19.26;47.24
20368;BME280;10343;52.402;9.796;2023-03-14T01:16:35;98376.28;;;19.15;47.68
20368;BME280;10343;52.402;9.796;2023-03-14T01:19:03;98370.06;;;19.52;46.94
20368;BME280;10343;52.402;9.796;2023-03-14T01:21:32;98372.84;;;18.95;48.75
20368;BME280;10343;52.402;9.796;2023-03-14T01:24:01;98364.03;;;19.03;48.27
20368;BME280;10343;52.402;9.796;2023-03-14T01:26:31;98361.78;;;19.64;47.03
20368;BME280;10343;52.402;9.796;2023-03-14T01:29:00;98356.97;;;19.12;48.13
20368;BME280;10343;52.402;9.796;2023-03-14T01:31:30;98362.97;;;19.51;47.01
20368;BME280;10343;52.402;9.796;2023-03-14T01:33:58;98359.53;;;18.94;48.03
20368;BME280;10343;52.402;9.796;2023-03-14T01:36:26;98349.25;;;18.89;48.34
20368;BME280;10343;52.402;9.796;2023-03-14T01:38:58;98349.63;;;19.04;47.78
20368;BME280;10343;52.402;9.796;2023-03-14T01:41:26;98358.91;;;19.20;47.57
20368;BME280;10343;52.402;9.796;2023-03-14T01:43:57;98382.06;;;19.21;47.69
20368;BME280;10343;52.402;9.796;2023-03-14T01:46:30;98393.91;;;19.28;47.56
20368;BME280;10343;52.402;9.796;2023-03-14T01:49:05;98415.22;;;18.92;48.22
20368;BME280;10343;52.402;9.796;2023-03-14T01:51:41;98374.44;;;19.54;46.72
20368;BME280;10343;52.402;9.796;2023-03-14T01:54:18;98343.31;;;19.79;45.94
20368;BME280;10343;52.402;9.796;2023-03-14T01:56:50;98338.81;;;19.51;46.50
20368;BME280;10343;52.402;9.796;2023-03-14T01:59:20;98342.44;;;19.32;46.51
20368;BME280;10343;52.402;9.796;2023-03-14T02:01:51;98358.66;;;19.03;47.51
20368;BME280;10343;52.402;9.796;2023-03-14T02:04:19;98350.13;;;19.73;46.06
20368;BME280;10343;52.402;9.796;2023-03-14T02:06:57;98355.97;;;20.14;45.15
20368;BME280;10343;52.402;9.796;2023-03-14T02:09:31;98351.66;;;19.58;46.47
20368;BME280;10343;52.402;9.796;2023-03-14T02:11:59;98355.41;;;20.29;44.88
20368;BME280;10343;52.402;9.796;2023-03-14T02:14:42;98364.25;;;19.20;47.27
20368;BME280;10343;52.402;9.796;2023-03-14T02:17:47;98371.03;;;19.79;46.13
20368;BME280;10343;52.402;9.796;2023-03-14T02:20:30;98372.50;;;20.19;45.61
20368;BME280;10343;52.402;9.796;2023-03-14T02:23:00;98381.56;;;20.00;46.15
20368;BME280;10343;52.402;9.796;2023-03-14T02:25:36;98387.25;;;18.75;48.82
20368;BME280;10343;52.402;9.796;2023-03-14T02:28:08;98377.63;;;19.01;47.58
20368;BME280;10343;52.402;9.796;2023-03-14T02:30:37;98381.47;;;19.92;46.38
20368;BME280;10343;52.402;9.796;2023-03-14T02:33:07;98365.09;;;19.85;46.47
20368;BME280;10343;52.402;9.796;2023-03-14T02:35:37;98355.59;;;18.78;48.50
20368;BME280;10343;52.402;9.796;2023-03-14T02:38:14;98349.91;;;19.39;46.95
20368;BME280;10343;52.402;9.796;2023-03-14T02:40:47;98347.09;;;19.86;46.03
20368;BME280;10343;52.402;9.796;2023-03-14T02:43:17;98356.44;;;20.10;45.44
20368;BME280;10343;52.402;9.796;2023-03-14T02:45:52;98347.59;;;20.17;45.12
20368;BME280;10343;52.402;9.796;2023-03-14T02:48:24;98339.06;;;19.30;46.55
20368;BME280;10343;52.402;9.796;2023-03-14T02:50:55;98345.66;;;19.92;45.53
20368;BME280;10343;52.402;9.796;2023-03-14T02:53:26;98344.97;;;20.26;44.82
20368;BME280;10343;52.402;9.796;2023-03-14T02:55:58;98339.88;;;19.03;46.69
20368;BME280;10343;52.402;9.796;2023-03-14T02:58:29;98329.38;;;18.53;47.85
20368;BME280;10343;52.402;9.796;2023-03-14T03:01:07;98333.91;;;19.93;45.25
20368;BME280;10343;52.402;9.796;2023-03-14T03:03:37;98345.72;;;20.00;44.69
20368;BME280;10343;52.402;9.796;2023-03-14T03:06:05;98337.22;;;19.87;44.91
20368;BME280;10343;52.402;9.796;2023-03-14T03:08:33;98327.84;;;19.91;44.66
20368;BME280;10343;52.402;9.796;2023-03-14T03:11:02;98328.28;;;19.86;44.94
20368;BME280;10343;52.402;9.796;2023-03-14T03:13:33;98338.47;;;18.99;46.43
20368;BME280;10343;52.402;9.796;2023-03-14T03:16:04;98334.84;;;20.19;43.94
20368;BME280;10343;52.402;9.796;2023-03-14T03:18:34;98332.66;;;20.41;43.46
20368;BME280;10343;52.402;9.796;2023-03-14T03:21:03;98335.41;;;20.49;43.47
20368;BME280;10343;52.402;9.796;2023-03-14T03:23:32;98328.69;;;20.09;43.91
20368;BME280;10343;52.402;9.796;2023-03-14T03:26:00;98330.63;;;19.15;45.73
20368;BME280;10343;52.402;9.796;2023-03-14T03:28:28;98317.00;;;20.18;43.74
20368;BME280;10343;52.402;9.796;2023-03-14T03:31:06;98316.69;;;19.85;44.56
20368;BME280;10343;52.402;9.796;2023-03-14T03:33:36;98319.75;;;19.45;45.29
20368;BME280;10343;52.402;9.796;2023-03-14T03:36:04;98313.41;;;20.28;43.45
20368;BME280;10343;52.402;9.796;2023-03-14T03:38:35;98303.94;;;19.88;44.04
20368;BME280;10343;52.402;9.796;2023-03-14T03:41:05;98303.25;;;19.85;43.89
20368;BME280;10343;52.402;9.796;2023-03-14T03:43:34;98303.97;;;19.78;44.75
20368;BME280;10343;52.402;9.796;2023-03-14T03:46:06;98308.22;;;20.16;44.43
20368;BME280;10343;52.402;9.796;2023-03-14T03:48:35;98309.31;;;19.42;46.63
20368;BME280;10343;52.402;9.796;2023-03-14T03:51:05;98333.31;;;19.15;48.63
20368;BME280;10343;52.402;9.796;2023-03-14T03:53:34;98347.63;;;18.39;49.99
20368;BME280;10343;52.402;9.796;2023-03-14T03:56:08;98365.53;;;18.68;52.55
20368;BME280;10343;52.402;9.796;2023-03-14T03:58:36;98353.50;;;18.53;54.31
20368;BME280;10343;52.402;9.796;2023-03-14T04:01:08;98349.16;;;18.03;57.72
20368;BME280;10343;52.402;9.796;2023-03-14T04:03:37;98344.94;;;18.29;56.20
20368;BME280;10343;52.402;9.796;2023-03-14T04:06:08;98339.59;;;18.20;56.15
20368;BME280;10343;52.402;9.796;2023-03-14T04:08:39;98328.25;;;17.87;56.55
20368;BME280;10343;52.402;9.796;2023-03-14T04:11:11;98335.50;;;18.15;54.17
20368;BME280;10343;52.402;9.796;2023-03-14T04:13:51;98333.78;;;18.34;53.52
20368;BME280;10343;52.402;9.796;2023-03-14T04:16:22;98338.63;;;17.51;55.22
20368;BME280;10343;52.402;9.796;2023-03-14T04:18:54;98340.56;;;18.38;52.78
20368;BME280;10343;52.402;9.796;2023-03-14T04:21:23;98338.00;;;17.97;53.44
20368;BME280;10343;52.402;9.796;2023-03-14T04:23:55;98341.56;;;18.17;53.10
20368;BME280;10343;52.402;9.796;2023-03-14T04:26:24;98329.56;;;17.42;55.50
20368;BME280;10343;52.402;9.796;2023-03-14T04:28:52;98331.19;;;17.13;55.99
20368;BME280;10343;52.402;9.796;2023-03-14T04:31:23;98328.78;;;17.61;55.36
20368;BME280;10343;52.402;9.796;2023-03-14T04:33:51;98333.97;;;17.12;57.21
20368;BME280;10343;52.402;9.796;2023-03-14T04:36:26;98325.03;;;17.32;55.79
20368;BME280;10343;52.402;9.796;2023-03-14T04:38:56;98328.06;;;17.08;55.94
20368;BME280;10343;52.402;9.796;2023-03-14T04:41:24;98322.59;;;17.60;54.26
20368;BME280;10343;52.402;9.796;2023-03-14T04:43:52;98313.50;;;17.42;54.29
20368;BME280;10343;52.402;9.796;2023-03-14T04:46:22;98321.09;;;17.37;54.34
20368;BME280;10343;52.402;9.796;2023-03-14T04:48:50;98321.41;;;16.81;55.39
20368;BME280;10343;52.402;9.796;2023-03-14T04:51:18;98310.38;;;17.37;54.12
20368;BME280;10343;52.402;9.796;2023-03-14T04:53:46;98300.84;;;17.03;53.87
20368;BME280;10343;52.402;9.796;2023-03-14T04:56:14;98311.28;;;17.47;53.43
20368;BME280;10343;52.402;9.796;2023-03-14T04:58:43;98303.09;;;17.48;52.73
20368;BME280;10343;52.402;9.796;2023-03-14T05:01:14;98301.31;;;17.88;51.98
20368;BME280;10343;52.402;9.796;2023-03-14T05:04:09;98298.28;;;17.42;52.22
20368;BME280;10343;52.402;9.796;2023-03-14T05:06:55;98292.25;;;16.78;53.59
20368;BME280;10343;52.402;9.796;2023-03-14T05:09:35;98287.50;;;16.61;54.32
20368;BME280;10343;52.402;9.796;2023-03-14T05:12:21;98285.16;;;16.89;54.26
20368;BME280;10343;52.402;9.796;2023-03-14T05:15:18;98277.44;;;16.74;54.26
20368;BME280;10343;52.402;9.796;2023-03-14T05:18:04;98270.06;;;17.38;53.19
20368;BME280;10343;52.402;9.796;2023-03-14T05:20:52;98284.31;;;16.67;54.31
20368;BME280;10343;52.402;9.796;2023-03-14T05:23:47;98289.75;;;17.18;53.78
20368;BME280;10343;52.402;9.796;2023-03-14T05:26:33;98282.34;;;16.69;54.91
20368;BME280;10343;52.402;9.796;2023-03-14T05:29:30;98281.25;;;16.93;54.26
20368;BME280;10343;52.402;9.796;2023-03-14T05:32:36;98273.50;;;16.69;54.53
20368;BME280;10343;52.402;9.796;2023-03-14T05:35:16;98271.59;;;16.80;54.08
20368;BME280;10343;52.402;9.796;2023-03-14T05:38:03;98272.56;;;17.10;53.27
20368;BME280;10343;52.402;9.796;2023-03-14T05:40:42;98284.63;;;16.95;53.99
20368;BME280;10343;52.402;9.796;2023-03-14T05:43:19;98278.53;;;16.62;54.84
20368;BME280;10343;52.402;9.796;2023-03-14T05:46:06;98271.84;;;17.88;51.95
20368;BME280;10343;52.402;9.796;2023-03-14T05:48:55;98261.97;;;17.69;51.88
20368;BME280;10343;52.402;9.796;2023-03-14T05:51:34;98278.84;;;17.60;52.54
20368;BME280;10343;52.402;9.796;2023-03-14T05:54:42;98277.41;;;16.64;55.00
20368;BME280;10343;52.402;9.796;2023-03-14T05:57:48;98266.38;;;17.20;53.09
20368;BME280;10343;52.402;9.796;2023-03-14T06:00:25;98268.59;;;17.05;54.49
20368;BME280;10343;52.402;9.796;2023-03-14T06:03:06;98276.81;;;16.61;54.79
20368;BME280;10343;52.402;9.796;2023-03-14T06:05:39;98262.59;;;17.22;53.14
20368;BME280;10343;52.402;9.796;2023-03-14T06:08:07;98256.88;;;17.66;52.23
20368;BME280;10343;52.402;9.796;2023-03-14T06:10:36;98265.63;;;17.68;51.84
20368;BME280;10343;52.402;9.796;2023-03-14T06:13:04;98257.72;;;17.47;51.32
20368;BME280;10343;52.402;9.796;2023-03-14T06:15:33;98261.38;;;17.65;52.04
20368;BME280;10343;52.402;9.796;2023-03-14T06:18:03;98262.63;;;17.32;52.27
20368;BME280;10343;52.402;9.796;2023-03-14T06:20:31;98264.34;;;17.53;51.93
20368;BME280;10343;52.402;9.796;2023-03-14T06:23:00;98261.13;;;17.78;51.51
20368;BME280;10343;52.402;9.796;2023-03-14T06:25:29;98254.81;;;17.99;50.44
20368;BME280;10343;52.402;9.796;2023-03-14T06:27:58;98263.66;;;17.90;50.19
20368;BME280;10343;52.402;9.796;2023-03-14T06:30:27;98270.88;;;18.19;50.46
20368;BME280;10343;52.402;9.796;2023-03-14T06:32:56;98268.13;;;18.48;49.40
20368;BME280;10343;52.402;9.796;2023-03-14T06:35:26;98279.69;;;18.48;49.57
20368;BME280;10343;52.402;9.796;2023-03-14T06:37:54;98275.66;;;18.82;48.76
20368;BME280;10343;52.402;9.796;2023-03-14T06:40:22;98273.44;;;18.58;48.65
20368;BME280;10343;52.402;9.796;2023-03-14T06:43:04;98278.31;;;18.34;49.19
20368;BME280;10343;52.402;9.796;2023-03-14T06:45:35;98271.16;;;18.15;49.43
20368;BME280;10343;52.402;9.796;2023-03-14T06:48:03;98272.09;;;18.81;48.05
20368;BME280;10343;52.402;9.796;2023-03-14T06:50:44;98268.41;;;19.20;47.85
20368;BME280;10343;52.402;9.796;2023-03-14T06:53:12;98276.03;;;19.25;46.56
20368;BME280;10343;52.402;9.796;2023-03-14T06:55:42;98277.59;;;18.99;46.80
20368;BME280;10343;52.402;9.796;2023-03-14T06:58:15;98279.34;;;18.71;47.44
20368;BME280;10343;52.402;9.796;2023-03-14T07:00:45;98284.59;;;19.10;46.05
20368;BME280;10343;52.402;9.796;2023-03-14T07:03:19;98283.94;;;19.26;46.12
20368;BME280;10343;52.402;9.796;2023-03-14T07:05:50;98283.00;;;19.45;45.17
20368;BME280;10343;52.402;9.796;2023-03-14T07:08:18;98288.97;;;19.11;45.40
20368;BME280;10343;52.402;9.796;2023-03-14T07:10:46;98291.25;;;18.59;46.27
20368;BME280;10343;52.402;9.796;2023-03-14T07:13:17;98291.91;;;19.18;45.79
20368;BME280;10343;52.402;9.796;2023-03-14T07:15:54;98298.25;;;18.79;46.74
20368;BME280;10343;52.402;9.796;2023-03-14T07:18:22;98284.81;;;18.42;47.68
20368;BME280;10343;52.402;9.796;2023-03-14T07:20:50;98289.03;;;18.34;48.26
20368;BME280;10343;52.402;9.796;2023-03-14T07:23:18;98279.34;;;18.71;47.59
20368;BME280;10343;52.402;9.796;2023-03-14T07:25:49;98283.38;;;19.23;46.88
20368;BME280;10343;52.402;9.796;2023-03-14T07:28:20;98297.03;;;19.11;46.53
20368;BME280;10343;52.402;9.796;2023-03-14T07:30:55;98295.41;;;18.24;48.46
20368;BME280;10343;52.402;9.796;2023-03-14T07:33:29;98297.31;;;18.71;47.26
20368;BME280;10343;52.402;9.796;2023-03-14T07:35:57;98304.50;;;19.63;46.10
20368;BME280;10343;52.402;9.796;2023-03-14T07:38:25;98305.88;;;18.74;47.41
20368;BME280;10343;52.402;9.796;2023-03-14T07:41:08;98304.75;;;18.77;47.50
20368;BME280;10343;52.402;9.796;2023-03-14T07:43:43;98310.09;;;18.87;46.97
20368;BME280;10343;52.402;9.796;2023-03-14T07:46:11;98306.44;;;18.88;47.49
20368;BME280;10343;52.402;9.796;2023-03-14T07:48:39;98310.03;;;19.06;47.37
20368;BME280;10343;52.402;9.796;2023-03-14T07:51:07;98323.44;;;18.59;48.70
20368;BME280;10343;52.402;9.796;2023-03-14T07:53:35;98312.94;;;19.50;47.67
20368;BME280;10343;52.402;9.796;2023-03-14T07:56:04;98310.09;;;18.87;48.78
20368;BME280;10343;52.402;9.796;2023-03-14T07:58:32;98313.44;;;19.08;49.02
20368;BME280;10343;52.402;9.796;2023-03-14T08:01:01;98312.72;;;18.59;50.29
20368;BME280;10343;52.402;9.796;2023-03-14T08:03:30;98318.13;;;18.87;49.34
20368;BME280;10343;52.402;9.796;2023-03-14T08:05:58;98311.38;;;19.30;48.86
20368;BME280;10343;52.402;9.796;2023-03-14T08:08:26;98309.94;;;18.98;50.46
20368;BME280;10343;52.402;9.796;2023-03-14T08:10:54;98308.69;;;18.92;50.20
20368;BME280;10343;52.402;9.796;2023-03-14T08:13:22;98305.22;;;18.53;49.67
20368;BME280;10343;52.402;9.796;2023-03-14T08:15:52;98311.75;;;19.63;47.96
20368;BME280;10343;52.402;9.796;2023-03-14T08:18:21;98318.06;;;19.16;48.69
20368;BME280;10343;52.402;9.796;2023-03-14T08:20:49;98314.19;;;19.56;48.79
20368;BME280;10343;52.402;9.796;2023-03-14T08:23:17;98308.78;;;19.84;47.50
20368;BME280;10343;52.402;9.796;2023-03-14T08:25:44;98311.16;;;20.05;46.99
20368;BME280;10343;52.402;9.796;2023-03-14T08:28:13;98306.41;;;20.87;45.32
20368;BME280;10343;52.402;9.796;2023-03-14T08:30:41;98304.69;;;20.34;45.89
20368;BME280;10343;52.402;9.796;2023-03-14T08:33:13;98302.66;;;20.10;46.25
20368;BME280;10343;52.402;9.796;2023-03-14T08:35:43;98301.78;;;20.09;46.19
20368;BME280;10343;52.402;9.796;2023-03-14T08:38:11;98306.34;;;20.53;44.73
20368;BME280;10343;52.402;9.796;2023-03-14T08:40:39;98299.88;;;21.25;43.74
20368;BME280;10343;52.402;9.796;2023-03-14T08:43:07;98307.63;;;20.23;45.55
20368;BME280;10343;52.402;9.796;2023-03-14T08:45:35;98308.09;;;20.00;46.03
20368;BME280;10343;52.402;9.796;2023-03-14T08:48:03;98304.97;;;19.87;46.62
20368;BME280;10343;52.402;9.796;2023-03-14T08:50:31;98303.16;;;19.31;48.42
20368;BME280;10343;52.402;9.796;2023-03-14T08:53:01;98307.63;;;20.05;46.81
20368;BME280;10343;52.402;9.796;2023-03-14T08:55:29;98314.03;;;20.48;45.93
20368;BME280;10343;52.402;9.796;2023-03-14T08:57:57;98302.88;;;19.80;47.08
20368;BME280;10343;52.402;9.796;2023-03-14T09:00:25;98308.44;;;20.67;45.88
20368;BME280;10343;52.402;9.796;2023-03-14T09:02:53;98311.09;;;20.77;45.12
20368;BME280;10343;52.402;9.796;2023-03-14T09:05:21;98314.00;;;19.02;49.37
20368;BME280;10343;52.402;9.796;2023-03-14T09:07:49;98311.88;;;19.79;48.22
20368;BME280;10343;52.402;9.796;2023-03-14T09:10:18;98314.63;;;20.33;47.80
20368;BME280;10343;52.402;9.796;2023-03-14T09:12:46;98302.31;;;20.31;48.20
20368;BME280;10343;52.402;9.796;2023-03-14T09:15:14;98306.00;;;20.74;46.70
20368;BME280;10343;52.402;9.796;2023-03-14T09:17:42;98315.72;;;19.59;49.22
20368;BME280;10343;52.402;9.796;2023-03-14T09:20:11;98304.75;;;19.52;49.03
20368;BME280;10343;52.402;9.796;2023-03-14T09:22:40;98314.25;;;20.10;48.06
20368;BME280;10343;52.402;9.796;2023-03-14T09:25:09;98311.53;;;19.74;50.20
20368;BME280;10343;52.402;9.796;2023-03-14T09:27:38;98320.78;;;19.90;49.65
20368;BME280;10343;52.402;9.796;2023-03-14T09:30:07;98325.84;;;19.65;50.58
20368;BME280;10343;52.402;9.796;2023-03-14T09:32:35;98317.16;;;19.99;50.20
20368;BME280;10343;52.402;9.796;2023-03-14T09:35:03;98315.19;;;21.59;46.31
20368;BME280;10343;52.402;9.796;2023-03-14T09:37:31;98315.75;;;21.01;46.92
20368;BME280;10343;52.402;9.796;2023-03-14T09:39:59;98316.06;;;21.33;47.01
20368;BME280;10343;52.402;9.796;2023-03-14T09:42:27;98310.53;;;21.85;44.75
20368;BME280;10343;52.402;9.796;2023-03-14T09:44:59;98318.44;;;21.01;46.98
20368;BME280;10343;52.402;9.796;2023-03-14T09:47:29;98309.38;;;22.04;45.08
20368;BME280;10343;52.402;9.796;2023-03-14T09:49:57;98305.81;;;21.87;45.48
20368;BME280;10343;52.402;9.796;2023-03-14T09:52:30;98310.81;;;21.66;45.23
20368;BME280;10343;52.402;9.796;2023-03-14T09:55:01;98306.28;;;21.83;44.75
20368;BME280;10343;52.402;9.796;2023-03-14T09:57:32;98304.69;;;20.78;46.81
20368;BME280;10343;52.402;9.796;2023-03-14T10:00:05;98309.13;;;21.65;45.10
20368;BME280;10343;52.402;9.796;2023-03-14T10:02:42;98316.63;;;20.58;46.73
20368;BME280;10343;52.402;9.796;2023-03-14T10:05:15;98314.41;;;20.71;47.25
20368;BME280;10343;52.402;9.796;2023-03-14T10:07:44;98308.44;;;20.67;47.01
20368;BME280;10343;52.402;9.796;2023-03-14T10:10:16;98305.38;;;21.15;46.06
20368;BME280;10343;52.402;9.796;2023-03-14T10:12:46;98312.91;;;22.30;43.43
20368;BME280;10343;52.402;9.796;2023-03-14T10:15:30;98294.44;;;21.16;44.51
20368;BME280;10343;52.402;9.796;2023-03-14T10:18:00;98296.56;;;22.23;43.01
20368;BME280;10343;52.402;9.796;2023-03-14T10:20:32;98297.44;;;22.40;42.91
20368;BME280;10343;52.402;9.796;2023-03-14T10:23:02;98302.47;;;22.10;42.73
20368;BME280;10343;52.402;9.796;2023-03-14T10:25:32;98294.72;;;22.65;41.88
20368;BME280;10343;52.402;9.796;2023-03-14T10:28:02;98296.50;;;21.57;44.33
20368;BME280;10343;52.402;9.796;2023-03-14T10:30:43;98288.59;;;21.88;43.50
20368;BME280;10343;52.402;9.796;2023-03-14T10:33:20;98300.28;;;22.30;42.35
20368;BME280;10343;52.402;9.796;2023-03-14T10:35:53;98314.28;;;22.34;42.16
20368;BME280;10343;52.402;9.796;2023-03-14T10:38:25;98311.22;;;21.96;43.80
20368;BME280;10343;52.402;9.796;2023-03-14T10:40:55;98315.59;;;21.03;45.57
20368;BME280;10343;52.402;9.796;2023-03-14T10:43:27;98307.53;;;21.11;45.98
20368;BME280;10343;52.402;9.796;2023-03-14T10:46:02;98309.47;;;20.66;46.94
20368;BME280;10343;52.402;9.796;2023-03-14T10:48:35;98317.28;;;21.04;46.13
20368;BME280;10343;52.402;9.796;2023-03-14T10:51:06;98304.16;;;21.44;45.03
20368;BME280;10343;52.402;9.796;2023-03-14T10:53:43;98299.41;;;21.88;43.99
20368;BME280;10343;52.402;9.796;2023-03-14T10:56:12;98313.22;;;21.34;44.53
20368;BME280;10343;52.402;9.796;2023-03-14T10:58:42;98311.81;;;21.65;44.66
20368;BME280;10343;52.402;9.796;2023-03-14T11:01:35;98300.53;;;21.27;44.69
20368;BME280;10343;52.402;9.796;2023-03-14T11:04:14;98305.06;;;20.83;45.33
20368;BME280;10343;52.402;9.796;2023-03-14T11:06:53;98301.25;;;20.94;45.54
20368;BME280;10343;52.402;9.796;2023-03-14T11:09:30;98308.00;;;21.41;44.72
20368;BME280;10343;52.402;9.796;2023-03-14T11:12:08;98305.47;;;20.97;45.30
20368;BME280;10343;52.402;9.796;2023-03-14T11:14:47;98303.50;;;21.07;44.61
20368;BME280;10343;52.402;9.796;2023-03-14T11:17:27;98316.25;;;20.97;45.50
20368;BME280;10343;52.402;9.796;2023-03-14T11:20:17;98309.06;;;20.79;46.67
20368;BME280;10343;52.402;9.796;2023-03-14T11:22:56;98355.97;;;20.14;48.27
20368;BME280;10343;52.402;9.796;2023-03-14T11:25:29;98412.13;;;18.28;58.28
20368;BME280;10343;52.402;9.796;2023-03-14T11:28:12;98431.31;;;19.87;58.81
20368;BME280;10343;52.402;9.796;2023-03-14T11:30:50;98448.22;;;15.93;77.46
20368;BME280;10343;52.402;9.796;2023-03-14T11:33:27;98473.03;;;14.91;75.82
20368;BME280;10343;52.402;9.796;2023-03-14T11:36:01;98481.63;;;16.42;67.44
20368;BME280;10343;52.402;9.796;2023-03-14T11:38:37;98482.38;;;17.40;68.73
20368;BME280;10343;52.402;9.796;2023-03-14T11:41:11;98511.50;;;15.81;62.09
20368;BME280;10343;52.402;9.796;2023-03-14T11:43:47;98507.47;;;16.97;62.76
20368;BME280;10343;52.402;9.796;2023-03-14T11:46:23;98524.63;;;16.94;61.16
20368;BME280;10343;52.402;9.796;2023-03-14T11:49:01;98537.47;;;16.68;63.61
20368;BME280;10343;52.402;9.796;2023-03-14T11:51:37;98545.59;;;16.78;64.18
20368;BME280;10343;52.402;9.796;2023-03-14T11:54:14;98557.41;;;13.17;80.59
20368;BME280;10343;52.402;9.796;2023-03-14T11:56:47;98578.50;;;12.65;81.19
20368;BME280;10343;52.402;9.796;2023-03-14T11:59:22;98580.25;;;12.79;79.58
20368;BME280;10343;52.402;9.796;2023-03-14T12:02:02;98600.81;;;14.33;67.09
20368;BME280;10343;52.402;9.796;2023-03-14T12:04:42;98624.34;;;14.02;67.76
20368;BME280;10343;52.402;9.796;2023-03-14T12:07:18;98652.53;;;13.26;65.85
20368;BME280;10343;52.402;9.796;2023-03-14T12:09:54;98661.34;;;11.42;79.13
20368;BME280;10343;52.402;9.796;2023-03-14T12:12:27;98690.50;;;11.72;75.00
20368;BME280;10343;52.402;9.796;2023-03-14T12:14:59;98692.16;;;13.03;70.79
20368;BME280;10343;52.402;9.796;2023-03-14T12:17:35;98704.47;;;11.90;76.47
20368;BME280;10343;52.402;9.796;2023-03-14T12:20:16;98729.81;;;13.92;65.36
20368;BME280;10343;52.402;9.796;2023-03-14T12:22:46;98749.09;;;13.28;62.94
20368;BME280;10343;52.402;9.796;2023-03-14T12:25:18;98754.00;;;13.89;64.85
20368;BME280;10343;52.402;9.796;2023-03-14T12:28:11;98771.78;;;12.20;67.29
20368;BME280;10343;52.402;9.796;2023-03-14T12:30:43;98784.97;;;12.07;68.46
20368;BME280;10343;52.402;9.796;2023-03-14T12:33:29;98800.28;;;12.61;65.95
20368;BME280;10343;52.402;9.796;2023-03-14T12:36:04;98823.47;;;12.73;67.43
20368;BME280;10343;52.402;9.796;2023-03-14T12:38:46;98810.19;;;13.44;63.43
20368;BME280;10343;52.402;9.796;2023-03-14T12:41:21;98825.69;;;13.37;62.33
20368;BME280;10343;52.402;9.796;2023-03-14T12:43:52;98838.81;;;13.26;60.63
20368;BME280;10343;52.402;9.796;2023-03-14T12:46:23;98847.09;;;12.19;65.94
20368;BME280;10343;52.402;9.796;2023-03-14T12:49:03;98880.72;;;12.65;63.93
20368;BME280;10343;52.402;9.796;2023-03-14T12:51:37;98867.69;;;10.54;72.53
20368;BME280;10343;52.402;9.796;2023-03-14T12:54:27;98845.41;;;12.77;66.68
20368;BME280;10343;52.402;9.796;2023-03-14T12:57:11;98868.94;;;11.62;68.69
20368;BME280;10343;52.402;9.796;2023-03-14T12:59:51;98879.56;;;11.78;70.50
20368;BME280;10343;52.402;9.796;2023-03-14T13:02:23;98881.59;;;13.08;63.45
20368;BME280;10343;52.402;9.796;2023-03-14T13:05:00;98889.09;;;11.00;69.46
20368;BME280;10343;52.402;9.796;2023-03-14T13:07:33;98914.16;;;12.69;63.25
20368;BME280;10343;52.402;9.796;2023-03-14T13:10:16;98929.66;;;13.20;63.17
20368;BME280;10343;52.402;9.796;2023-03-14T13:12:49;98954.75;;;11.78;66.80
20368;BME280;10343;52.402;9.796;2023-03-14T13:15:23;98950.47;;;13.56;59.35
20368;BME280;10343;52.402;9.796;2023-03-14T13:17:54;98945.56;;;12.62;63.87
20368;BME280;10343;52.402;9.796;2023-03-14T13:20:28;98966.09;;;12.74;59.94
20368;BME280;10343;52.402;9.796;2023-03-14T13:22:58;98969.13;;;13.71;56.90
20368;BME280;10343;52.402;9.796;2023-03-14T13:25:30;98963.22;;;12.01;62.67
20368;BME280;10343;52.402;9.796;2023-03-14T13:28:01;98987.56;;;12.71;61.49
20368;BME280;10343;52.402;9.796;2023-03-14T13:30:38;98994.84;;;12.68;59.96